createdAt,value
2022-09-28T00:00:56.281Z,96420.56
2022-09-28T00:04:01.883Z,96413.25
2022-09-28T00:07:07.471Z,96412.44
2022-09-28T00:10:15.183Z,96405.72
2022-09-28T00:13:23.282Z,96405.34
2022-09-28T00:16:32.896Z,96401.03
2022-09-28T00:19:39.307Z,96403.41
2022-09-28T00:22:52.607Z,96411.34
2022-09-28T00:25:58.091Z,96399.91
2022-09-28T00:29:06.801Z,96404.25
2022-09-28T00:32:17.147Z,96399.97
2022-09-28T00:35:28.183Z,96414.72
2022-09-28T00:38:40.825Z,96409.41
2022-09-28T00:46:46.190Z,96404.38
2022-09-28T00:50:07.601Z,96406.66
2022-09-28T00:53:27.859Z,96406.50
2022-09-28T00:56:43.973Z,96406.84
2022-09-28T00:59:51.100Z,96406.25
2022-09-28T01:03:03.778Z,96404.44
2022-09-28T01:06:17.469Z,96407.78
2022-09-28T01:09:30.656Z,96408.59
2022-09-28T01:12:36.418Z,96408.59
2022-09-28T01:15:56.086Z,96408.03
2022-09-28T01:19:39.451Z,96409.44
2022-09-28T01:23:46.709Z,96406.56
2022-09-28T01:27:15.853Z,96412.50
2022-09-28T01:30:25.877Z,96408.44
2022-09-28T01:33:42.927Z,96409.97
2022-09-28T01:36:57.203Z,96408.66
2022-09-28T01:40:16.018Z,96412.69
2022-09-28T01:43:37.445Z,96407.97
2022-09-28T01:46:49.674Z,96409.63
2022-09-28T01:50:07.884Z,96413.41
2022-09-28T01:53:29.876Z,96401.97
2022-09-28T01:56:45.098Z,96402.41
2022-09-28T02:00:14.354Z,96405.09
2022-09-28T02:03:28.422Z,96398.75
2022-09-28T02:06:46.162Z,96398.16
2022-09-28T02:10:01.117Z,96399.19
2022-09-28T02:13:17.553Z,96409.59
2022-09-28T02:16:37.828Z,96402.66
2022-09-28T02:19:44.255Z,96398.75
2022-09-28T02:22:56.511Z,96401.84
2022-09-28T02:26:14.910Z,96403.06
2022-09-28T02:29:22.468Z,96410.41
2022-09-28T02:32:35.730Z,96405.03
2022-09-28T02:35:44.413Z,96408.69
2022-09-28T02:38:50.452Z,96418.41
2022-09-28T02:42:09.678Z,96406.44
2022-09-28T02:45:41.926Z,96406.22
2022-09-28T02:49:27.844Z,96403.53
2022-09-28T02:53:11.679Z,96408.81
2022-09-28T02:56:53.144Z,96410.63
2022-09-28T03:00:16.851Z,96405.50
2022-09-28T03:03:35.873Z,96409.59
2022-09-28T03:06:55.904Z,96411.84
2022-09-28T03:10:11.761Z,96413.06
2022-09-28T03:13:19.771Z,96415.69
2022-09-28T03:16:26.435Z,96413.69
2022-09-28T03:19:37.689Z,96414.69
2022-09-28T03:23:00.481Z,96421.44
2022-09-28T03:26:16.996Z,96415.56
2022-09-28T03:29:22.894Z,96415.97
2022-09-28T03:32:38.960Z,96426.31
2022-09-28T03:35:45.489Z,96423.31
2022-09-28T03:38:59.806Z,96426.31
2022-09-28T03:42:06.261Z,96433.06
2022-09-28T03:45:16.916Z,96420.47
2022-09-28T03:48:31.853Z,96427.97
2022-09-28T03:51:38.099Z,96420.25
2022-09-28T03:54:49.189Z,96427.56
2022-09-28T03:57:58.673Z,96429.13
2022-09-28T04:01:16.506Z,96428.94
2022-09-28T04:04:24.091Z,96417.97
2022-09-28T04:07:31.181Z,96426.84
2022-09-28T04:10:40.609Z,96421.97
2022-09-28T04:13:46.407Z,96423.16
2022-09-28T04:16:55.008Z,96424.78
2022-09-28T04:20:08.487Z,96420.84
2022-09-28T04:23:20.555Z,96427.59
2022-09-28T04:26:35.625Z,96414.03
2022-09-28T04:29:44.118Z,96413.63
2022-09-28T04:32:52.296Z,96411.22
2022-09-28T04:35:57.937Z,96411.19
2022-09-28T04:39:03.640Z,96412.41
2022-09-28T04:42:13.774Z,96407.47
2022-09-28T04:45:22.304Z,96408.50
2022-09-28T04:48:29.542Z,96398.38
2022-09-28T04:51:58.208Z,96396.09
2022-09-28T04:55:03.762Z,96398.34
2022-09-28T04:58:12.015Z,96401.25
2022-09-28T05:01:23.870Z,96396.19
2022-09-28T05:04:38.493Z,96395.53
2022-09-28T05:08:19.934Z,96405.56
2022-09-28T05:11:27.111Z,96407.13
2022-09-28T05:14:35.524Z,96408.19
2022-09-28T05:17:42.725Z,96408.84
2022-09-28T05:20:58.675Z,96415.75
2022-09-28T05:24:07.835Z,96414.56
2022-09-28T05:27:17.188Z,96417.44
2022-09-28T05:30:29.691Z,96412.34
2022-09-28T05:33:55.151Z,96415.69
2022-09-28T05:37:08.659Z,96420.78
2022-09-28T05:40:22.292Z,96424.88
2022-09-28T05:43:28.100Z,96425.25
2022-09-28T05:46:36.518Z,96419.56
2022-09-28T05:49:42.745Z,96424.81
2022-09-28T05:52:51.785Z,96427.03
2022-09-28T05:56:04.082Z,96427.44
2022-09-28T05:59:20.702Z,96432.56
2022-09-28T06:02:29.359Z,96421.31
2022-09-28T06:05:39.578Z,96425.88
2022-09-28T06:08:51.188Z,96426.53
2022-09-28T06:12:13.272Z,96422.75
2022-09-28T06:15:25.853Z,96426.09
2022-09-28T06:18:34.114Z,96414.84
2022-09-28T06:21:59.349Z,96417.28
2022-09-28T06:25:06.987Z,96415.84
2022-09-28T06:28:15.674Z,96414.69
2022-09-28T06:31:24.026Z,96407.56
2022-09-28T06:34:32.917Z,96421.00
2022-09-28T06:37:38.615Z,96415.25
2022-09-28T06:40:44.525Z,96423.16
2022-09-28T06:43:52.239Z,96423.78
2022-09-28T06:47:22.286Z,96420.44
2022-09-28T06:50:54.010Z,96418.16
2022-09-28T06:54:07.304Z,96419.78
2022-09-28T06:57:19.461Z,96417.22
2022-09-28T07:00:28.633Z,96425.13
2022-09-28T07:03:40.206Z,96417.97
2022-09-28T07:07:31.497Z,96419.75
2022-09-28T07:10:56.448Z,96419.59
2022-09-28T07:14:42.563Z,96425.06
2022-09-28T07:17:59.695Z,96417.59
2022-09-28T07:21:10.777Z,96415.09
2022-09-28T07:24:22.086Z,96414.69
2022-09-28T07:27:53.745Z,96423.84
2022-09-28T07:31:32.587Z,96437.25
2022-09-28T07:34:59.104Z,96437.00
2022-09-28T07:38:18.038Z,96435.41
2022-09-28T07:41:36.207Z,96418.00
2022-09-28T07:44:47.257Z,96417.81
2022-09-28T07:47:52.988Z,96418.56
2022-09-28T07:51:19.962Z,96424.91
2022-09-28T07:54:54.337Z,96428.22
2022-09-28T07:58:20.557Z,96424.84
2022-09-28T08:01:38.663Z,96419.44
2022-09-28T08:04:45.171Z,96420.88
2022-09-28T08:07:53.198Z,96408.34
2022-09-28T08:11:01.063Z,96412.66
2022-09-28T08:14:28.811Z,96411.84
2022-09-28T08:17:50.348Z,96411.63
2022-09-28T08:21:11.206Z,96402.22
2022-09-28T08:24:20.300Z,96403.75
2022-09-28T08:27:26.672Z,96407.31
2022-09-28T08:30:35.764Z,96404.81
2022-09-28T08:33:57.667Z,96400.31
2022-09-28T08:37:26.132Z,96406.25
2022-09-28T08:41:07.743Z,96397.72
2022-09-28T08:44:34.065Z,96404.19
2022-09-28T08:48:19.009Z,96410.09
2022-09-28T08:52:03.784Z,96406.94
2022-09-28T08:55:34.156Z,96409.47
2022-09-28T08:58:48.701Z,96405.72
2022-09-28T09:02:04.000Z,96406.13
2022-09-28T09:05:20.613Z,96411.66
2022-09-28T09:09:15.354Z,96414.28
2022-09-28T09:12:38.897Z,96421.97
2022-09-28T09:15:58.519Z,96416.84
2022-09-28T09:19:56.344Z,96418.16
2022-09-28T09:23:40.281Z,96411.47
2022-09-28T09:26:46.809Z,96407.59
2022-09-28T09:30:19.195Z,96405.78
2022-09-28T09:34:19.707Z,96399.94
2022-09-28T09:37:59.670Z,96413.16
2022-09-28T09:41:35.064Z,96401.94
2022-09-28T09:45:46.091Z,96406.38
2022-09-28T09:49:22.612Z,96410.22
2022-09-28T09:52:42.339Z,96398.88
2022-09-28T09:55:59.169Z,96399.16
2022-09-28T09:59:24.500Z,96405.00
2022-09-28T10:02:45.264Z,96395.41
2022-09-28T10:06:35.875Z,96367.06
2022-09-28T10:09:48.618Z,96373.59
2022-09-28T10:13:13.796Z,96382.22
2022-09-28T10:16:24.017Z,96369.00
2022-09-28T10:19:39.911Z,96370.06
2022-09-28T10:23:34.145Z,96366.38
2022-09-28T10:26:49.407Z,96363.72
2022-09-28T10:30:00.905Z,96370.16
2022-09-28T10:33:34.405Z,96355.84
2022-09-28T10:36:56.157Z,96358.03
2022-09-28T10:40:02.752Z,96352.31
2022-09-28T10:43:26.855Z,96352.91
2022-09-28T10:46:41.427Z,96339.53
2022-09-28T10:49:59.529Z,96323.28
2022-09-28T10:53:23.082Z,96321.91
2022-09-28T10:56:58.140Z,96319.50
2022-09-28T11:00:37.269Z,96328.69
2022-09-28T11:04:02.690Z,96320.84
2022-09-28T11:07:21.532Z,96307.63
2022-09-28T11:10:32.829Z,96316.53
2022-09-28T11:13:53.242Z,96307.53
2022-09-28T11:17:21.168Z,96306.88
2022-09-28T11:20:37.530Z,96300.66
2022-09-28T11:24:01.554Z,96308.28
2022-09-28T11:27:08.177Z,96295.50
2022-09-28T11:30:29.008Z,96303.13
2022-09-28T11:34:16.039Z,96298.72
2022-09-28T11:38:00.786Z,96301.97
2022-09-28T11:42:05.114Z,96306.44
2022-09-28T11:45:41.191Z,96297.53
2022-09-28T11:49:09.857Z,96288.88
2022-09-28T11:52:49.176Z,96284.97
2022-09-28T11:56:13.871Z,96285.09
2022-09-28T11:59:37.044Z,96287.53
2022-09-28T12:02:54.656Z,96283.31
2022-09-28T12:06:13.125Z,96285.38
2022-09-28T12:09:33.321Z,96278.94
2022-09-28T12:13:00.295Z,96274.03
2022-09-28T12:19:56.479Z,96274.09
2022-09-28T12:23:19.606Z,96265.41
2022-09-28T12:26:39.559Z,96274.63
2022-09-28T12:29:54.633Z,96270.66
2022-09-28T12:33:19.974Z,96276.38
2022-09-28T12:36:52.166Z,96272.41
2022-09-28T12:40:28.337Z,96263.00
2022-09-28T12:44:02.024Z,96269.47
2022-09-28T12:47:52.126Z,96261.00
2022-09-28T12:51:25.295Z,96260.25
2022-09-28T12:55:05.291Z,96250.72
2022-09-28T12:58:40.942Z,96248.38
2022-09-28T13:02:30.352Z,96256.72
2022-09-28T13:06:28.081Z,96251.66
2022-09-28T13:09:52.759Z,96258.44
2022-09-28T13:13:26.564Z,96249.13
2022-09-28T13:16:46.896Z,96239.78
2022-09-28T13:20:01.565Z,96239.78
2022-09-28T13:23:21.702Z,96249.13
2022-09-28T13:26:38.356Z,96247.19
2022-09-28T13:29:47.267Z,96238.56
2022-09-28T13:32:57.323Z,96235.75
2022-09-28T13:36:05.792Z,96241.84
2022-09-28T13:39:41.182Z,96236.38
2022-09-28T13:43:23.867Z,96227.84
2022-09-28T13:46:46.265Z,96226.22
2022-09-28T13:50:17.415Z,96228.72
2022-09-28T13:53:39.831Z,96233.63
2022-09-28T13:57:05.316Z,96220.94
2022-09-28T14:00:30.868Z,96220.50
2022-09-28T14:03:58.630Z,96220.78
2022-09-28T14:07:19.424Z,96214.94
2022-09-28T14:10:47.060Z,96205.59
2022-09-28T14:14:04.708Z,96200.03
2022-09-28T14:18:02.057Z,96202.19
2022-09-28T14:21:50.829Z,96209.34
2022-09-28T14:25:18.093Z,96208.47
2022-09-28T14:28:51.884Z,96204.09
2022-09-28T14:32:05.930Z,96200.03
2022-09-28T14:35:28.207Z,96202.28
2022-09-28T14:39:00.171Z,96184.34
2022-09-28T14:42:15.904Z,96192.38
2022-09-28T14:45:38.649Z,96201.16
2022-09-28T14:48:53.491Z,96193.59
2022-09-28T14:52:06.715Z,96187.97
2022-09-28T14:55:27.823Z,96168.22
2022-09-28T14:58:33.822Z,96175.28
2022-09-28T15:01:41.030Z,96176.91
2022-09-28T15:04:55.143Z,96173.50
2022-09-28T15:08:04.085Z,96182.63
2022-09-28T15:11:20.857Z,96190.91
2022-09-28T15:14:26.499Z,96183.69
2022-09-28T15:17:39.791Z,96186.78
2022-09-28T15:20:51.983Z,96190.66
2022-09-28T15:24:00.129Z,96189.56
2022-09-28T15:27:22.767Z,96193.44
2022-09-28T15:30:37.656Z,96191.81
2022-09-28T15:33:57.115Z,96203.16
2022-09-28T15:37:09.212Z,96217.59
2022-09-28T15:40:23.334Z,96230.22
2022-09-28T15:43:33.279Z,96247.06
2022-09-28T15:46:53.038Z,96235.81
2022-09-28T15:50:05.683Z,96228.91
2022-09-28T15:53:27.839Z,96215.00
2022-09-28T15:57:06.057Z,96213.84
2022-09-28T16:00:31.267Z,96231.50
2022-09-28T16:03:51.846Z,96231.19
2022-09-28T16:07:40.120Z,96233.59
2022-09-28T16:11:07.621Z,96239.09
2022-09-28T16:14:27.555Z,96249.16
2022-09-28T16:17:38.307Z,96245.09
2022-09-28T16:20:45.813Z,96245.66
2022-09-28T16:23:58.610Z,96243.03
2022-09-28T16:27:08.475Z,96244.66
2022-09-28T16:30:25.550Z,96237.81
2022-09-28T16:33:35.422Z,96233.88
2022-09-28T16:36:47.469Z,96235.38
2022-09-28T16:39:53.024Z,96225.53
2022-09-28T16:43:04.417Z,96218.78
2022-09-28T16:46:19.809Z,96208.72
2022-09-28T16:49:28.505Z,96222.63
2022-09-28T16:52:46.487Z,96223.88
2022-09-28T16:55:52.985Z,96233.97
2022-09-28T16:58:59.787Z,96228.66
2022-09-28T17:02:45.721Z,96240.34
2022-09-28T17:05:57.366Z,96241.88
2022-09-28T17:09:07.042Z,96256.59
2022-09-28T17:12:28.478Z,96252.44
2022-09-28T17:15:34.097Z,96258.31
2022-09-28T17:18:42.399Z,96265.28
2022-09-28T17:21:48.376Z,96261.22
2022-09-28T17:24:53.933Z,96262.75
2022-09-28T17:28:01.934Z,96271.22
2022-09-28T17:31:12.958Z,96265.41
2022-09-28T17:34:21.581Z,96274.06
2022-09-28T17:37:27.171Z,96273.75
2022-09-28T17:40:35.019Z,96277.44
2022-09-28T17:43:41.858Z,96273.28
2022-09-28T17:46:51.284Z,96282.78
2022-09-28T17:49:59.504Z,96283.72
2022-09-28T17:53:06.668Z,96293.91
2022-09-28T17:56:12.357Z,96289.16
2022-09-28T17:59:22.160Z,96289.97
2022-09-28T18:02:28.095Z,96289.50
2022-09-28T18:05:36.967Z,96291.13
2022-09-28T18:08:43.812Z,96300.50
2022-09-28T18:11:54.331Z,96310.47
2022-09-28T18:15:00.268Z,96312.69
2022-09-28T18:18:09.645Z,96318.59
2022-09-28T18:21:18.389Z,96320.56
2022-09-28T18:24:24.353Z,96313.34
2022-09-28T18:27:34.287Z,96307.19
2022-09-28T18:30:44.686Z,96315.97
2022-09-28T18:33:51.301Z,96311.22
2022-09-28T18:36:59.671Z,96312.81
2022-09-28T18:40:05.782Z,96315.50
2022-09-28T18:43:14.454Z,96324.34
2022-09-28T18:46:21.368Z,96322.13
2022-09-28T18:49:27.783Z,96328.19
2022-09-28T18:52:42.369Z,96325.31
2022-09-28T18:55:48.981Z,96333.91
2022-09-28T18:58:54.874Z,96338.19
2022-09-28T19:02:01.773Z,96345.03
2022-09-28T19:05:10.083Z,96333.31
2022-09-28T19:08:18.115Z,96346.91
2022-09-28T19:11:23.653Z,96349.22
2022-09-28T19:14:29.293Z,96346.06
2022-09-28T19:17:36.265Z,96349.22
2022-09-28T19:20:41.900Z,96347.38
2022-09-28T19:23:53.847Z,96351.53
2022-09-28T19:26:59.511Z,96359.19
2022-09-28T19:30:05.212Z,96355.34
2022-09-28T19:33:11.003Z,96351.59
2022-09-28T19:36:19.817Z,96362.16
2022-09-28T19:39:27.993Z,96364.44
2022-09-28T19:42:34.244Z,96360.75
2022-09-28T19:45:40.167Z,96363.41
2022-09-28T19:48:45.771Z,96374.91
2022-09-28T19:52:14.295Z,96373.19
2022-09-28T19:55:23.803Z,96383.72
2022-09-28T19:58:34.765Z,96380.38
2022-09-28T20:01:40.577Z,96381.91
2022-09-28T20:04:46.187Z,96381.22
2022-09-28T20:07:51.854Z,96380.19
2022-09-28T20:11:02.344Z,96387.59
2022-09-28T20:14:19.335Z,96405.22
2022-09-28T20:17:25.128Z,96410.44
2022-09-28T20:20:36.507Z,96416.56
2022-09-28T20:23:42.936Z,96418.94
2022-09-28T20:26:51.115Z,96420.75
2022-09-28T20:29:56.758Z,96438.28
2022-09-28T20:33:02.476Z,96419.81
2022-09-28T20:36:09.681Z,96413.00
2022-09-28T20:39:16.009Z,96418.81
2022-09-28T20:42:24.566Z,96427.94
2022-09-28T20:45:30.202Z,96424.81
2022-09-28T20:48:37.108Z,96427.94
2022-09-28T20:51:42.625Z,96441.53
2022-09-28T20:54:48.078Z,96431.88
2022-09-28T20:57:56.243Z,96426.47
2022-09-28T21:01:12.613Z,96442.59
2022-09-28T21:04:18.173Z,96442.47
2022-09-28T21:07:23.741Z,96450.09
2022-09-28T21:10:30.835Z,96456.47
2022-09-28T21:13:43.028Z,96464.34
2022-09-28T21:16:48.559Z,96465.28
2022-09-28T21:19:54.212Z,96461.09
2022-09-28T21:22:59.889Z,96466.22
2022-09-28T21:26:11.401Z,96465.03
2022-09-28T21:29:19.579Z,96466.69
2022-09-28T21:32:25.251Z,96451.69
2022-09-28T21:35:30.811Z,96452.88
2022-09-28T21:38:37.866Z,96462.94
2022-09-28T21:41:44.475Z,96488.41
2022-09-28T21:44:55.332Z,96494.81
2022-09-28T21:48:04.834Z,96500.50
2022-09-28T21:51:13.460Z,96506.63
2022-09-28T21:54:19.298Z,96497.38
2022-09-28T21:57:26.153Z,96503.16
2022-09-28T22:00:34.740Z,96493.63
2022-09-28T22:03:40.431Z,96490.22
2022-09-28T22:06:45.993Z,96500.84
2022-09-28T22:09:53.600Z,96504.78
2022-09-28T22:12:59.227Z,96501.06
2022-09-28T22:16:07.713Z,96504.78
2022-09-28T22:19:13.407Z,96504.78
2022-09-28T22:22:18.978Z,96506.84
2022-09-28T22:25:24.678Z,96512.84
2022-09-28T22:28:31.351Z,96526.72
2022-09-28T22:31:42.765Z,96525.47
2022-09-28T22:34:48.275Z,96526.72
2022-09-28T22:37:53.861Z,96520.63
2022-09-28T22:41:00.215Z,96527.59
2022-09-28T22:44:05.755Z,96527.31
2022-09-28T22:47:16.007Z,96536.16
2022-09-28T22:50:21.596Z,96539.28
2022-09-28T22:53:28.577Z,96546.69
2022-09-28T22:56:36.400Z,96541.81
2022-09-28T22:59:44.030Z,96546.97
2022-09-28T23:02:52.193Z,96550.09
2022-09-28T23:05:59.457Z,96551.72
2022-09-28T23:09:05.561Z,96554.09
2022-09-28T23:12:11.262Z,96546.47
2022-09-28T23:15:23.403Z,96539.44
2022-09-28T23:18:35.602Z,96549.66
2022-09-28T23:21:41.526Z,96533.66
2022-09-28T23:24:47.000Z,96536.19
2022-09-28T23:27:54.121Z,96539.88
2022-09-28T23:30:59.716Z,96527.53
2022-09-28T23:34:09.596Z,96542.47
2022-09-28T23:37:15.145Z,96546.97
2022-09-28T23:40:22.853Z,96561.34
2022-09-28T23:43:28.862Z,96558.75
2022-09-28T23:46:34.567Z,96561.03
2022-09-28T23:49:50.601Z,96566.72
2022-09-28T23:52:56.066Z,96572.44
2022-09-28T23:56:02.565Z,96575.97
2022-09-28T23:59:08.785Z,96579.53
